Grizzly Air Cargo 5137


PASC
Deadhorse Airport
Deadhorse, Alaska, US
PANC
Ted Stevens Anchorage International Airport
Anchorage, Alaska, US

Activity Log

Date Flight Route Aircraft Duration
12/22/2019 GRZ5137 SCC J115 CQR J155 ENN V436 TKA B722 1h 42m
10/08/2019 GRZ537 CQR PUYVO KROTO4 B722 1h 16m
09/20/2019 GRZ537 CQR PUYVO KROTO4 B722 1h 25m
09/10/2019 GRZ537 CQR PUYVO KROTO4 B722 1h 25m
06/27/2019 GRZ537 CQR PUYVO KROTO4 B722 1h 33m

Route Details

Aircraft Information
Primary: Boeing 727-200F
Backup: Boeing 737-800BCF
Route Data
Distance: 638nm
Sched. Duration: 1h 35m
Avg. Duration: 1h 28m (-6m)
Times Flown: 5
Recm'd Route: CQR PUYVO KROTO4
Planned Altitude: 39,000ft
Origin Wx: PASC 262353Z AUTO 23007KT 10SM BR CLR M37/ A3024 RMK AO2 SLP242 T1367 11356 21372 57004 TSNO
Dest. Wx: PANC 262353Z 06005KT 10SM FEW200 M05/M11 A2949 RMK AO2 SLP989 4/020 T10501111 11044 21072 55001
Notes:

Financial History
Total Freight: 163,004lbs
Average Load: 32,601lbs/flt
Fuel Used: 66,552lbs
Avg. Fuel Used: 13,310lbs/flt
Fuel Expense: $52,576
Avg. Fuel Expense: $10,515
Avg. Fuel Cost: $0.79/lbs
Total Gross Income: $290,012
Pilot Pay: $985
Total Expenses: $31,581
Total Revenue: $204,402
Average Revenue: $58,002.45